sensor_id;sensor_type;location;lat;lon;timestamp;P1;durP1;ratioP1;P2;durP2;ratioP2
64957;SDS011;51486;50.232;19.208;2023-04-29T00:00:26;7.07;;;4.20;;
64957;SDS011;51486;50.232;19.208;2023-04-29T00:03:12;6.67;;;3.63;;
64957;SDS011;51486;50.232;19.208;2023-04-29T00:05:57;10.43;;;4.23;;
64957;SDS011;51486;50.232;19.208;2023-04-29T00:08:43;9.00;;;3.23;;
64957;SDS011;51486;50.232;19.208;2023-04-29T00:11:29;7.27;;;3.70;;
64957;SDS011;51486;50.232;19.208;2023-04-29T00:14:15;7.23;;;3.97;;
64957;SDS011;51486;50.232;19.208;2023-04-29T00:17:01;6.43;;;3.10;;
64957;SDS011;51486;50.232;19.208;2023-04-29T00:19:47;5.20;;;3.03;;
64957;SDS011;51486;50.232;19.208;2023-04-29T00:22:32;5.73;;;3.43;;
64957;SDS011;51486;50.232;19.208;2023-04-29T00:25:18;12.87;;;3.60;;
64957;SDS011;51486;50.232;19.208;2023-04-29T00:28:05;6.80;;;3.27;;
64957;SDS011;51486;50.232;19.208;2023-04-29T00:30:50;7.63;;;3.20;;
64957;SDS011;51486;50.232;19.208;2023-04-29T00:33:37;8.37;;;3.43;;
64957;SDS011;51486;50.232;19.208;2023-04-29T00:36:25;11.63;;;3.67;;
64957;SDS011;51486;50.232;19.208;2023-04-29T00:39:11;18.50;;;3.07;;
64957;SDS011;51486;50.232;19.208;2023-04-29T00:41:58;7.10;;;3.50;;
64957;SDS011;51486;50.232;19.208;2023-04-29T00:44:43;4.53;;;2.70;;
64957;SDS011;51486;50.232;19.208;2023-04-29T00:47:29;5.50;;;3.27;;
64957;SDS011;51486;50.232;19.208;2023-04-29T00:50:15;5.37;;;2.93;;
64957;SDS011;51486;50.232;19.208;2023-04-29T00:53:01;7.20;;;3.07;;
64957;SDS011;51486;50.232;19.208;2023-04-29T00:55:46;7.27;;;3.60;;
64957;SDS011;51486;50.232;19.208;2023-04-29T00:58:35;7.23;;;3.17;;
64957;SDS011;51486;50.232;19.208;2023-04-29T01:01:23;6.20;;;3.57;;
64957;SDS011;51486;50.232;19.208;2023-04-29T01:04:09;15.60;;;4.80;;
64957;SDS011;51486;50.232;19.208;2023-04-29T01:10:14;4.93;;;3.13;;
64957;SDS011;51486;50.232;19.208;2023-04-29T01:13:13;10.57;;;4.43;;
64957;SDS011;51486;50.232;19.208;2023-04-29T01:16:07;5.93;;;3.47;;
64957;SDS011;51486;50.232;19.208;2023-04-29T01:18:57;7.33;;;4.40;;
64957;SDS011;51486;50.232;19.208;2023-04-29T01:21:47;10.23;;;4.03;;
64957;SDS011;51486;50.232;19.208;2023-04-29T01:24:33;8.00;;;4.10;;
64957;SDS011;51486;50.232;19.208;2023-04-29T01:39:36;10.33;;;4.50;;
64957;SDS011;51486;50.232;19.208;2023-04-29T01:45:18;12.27;;;4.53;;
64957;SDS011;51486;50.232;19.208;2023-04-29T01:48:06;7.53;;;4.30;;
64957;SDS011;51486;50.232;19.208;2023-04-29T01:50:53;9.17;;;4.43;;
64957;SDS011;51486;50.232;19.208;2023-04-29T01:53:38;10.97;;;5.37;;
64957;SDS011;51486;50.232;19.208;2023-04-29T01:56:27;8.67;;;4.40;;
64957;SDS011;51486;50.232;19.208;2023-04-29T01:59:13;8.17;;;5.07;;
64957;SDS011;51486;50.232;19.208;2023-04-29T02:01:59;12.00;;;6.20;;
64957;SDS011;51486;50.232;19.208;2023-04-29T02:04:44;9.30;;;4.97;;
64957;SDS011;51486;50.232;19.208;2023-04-29T02:07:30;9.60;;;4.60;;
64957;SDS011;51486;50.232;19.208;2023-04-29T02:10:16;12.33;;;5.50;;
64957;SDS011;51486;50.232;19.208;2023-04-29T02:13:02;16.13;;;5.60;;
64957;SDS011;51486;50.232;19.208;2023-04-29T02:15:47;11.83;;;5.80;;
64957;SDS011;51486;50.232;19.208;2023-04-29T02:18:33;16.83;;;6.27;;
64957;SDS011;51486;50.232;19.208;2023-04-29T02:21:19;13.33;;;5.93;;
64957;SDS011;51486;50.232;19.208;2023-04-29T02:24:05;17.60;;;6.70;;
64957;SDS011;51486;50.232;19.208;2023-04-29T02:26:51;16.30;;;5.73;;
64957;SDS011;51486;50.232;19.208;2023-04-29T02:29:37;14.33;;;6.10;;
64957;SDS011;51486;50.232;19.208;2023-04-29T02:32:23;10.00;;;5.67;;
64957;SDS011;51486;50.232;19.208;2023-04-29T02:35:09;9.00;;;4.67;;
64957;SDS011;51486;50.232;19.208;2023-04-29T02:37:54;15.00;;;6.50;;
64957;SDS011;51486;50.232;19.208;2023-04-29T02:40:41;18.90;;;5.60;;
64957;SDS011;51486;50.232;19.208;2023-04-29T02:43:27;16.83;;;5.63;;
64957;SDS011;51486;50.232;19.208;2023-04-29T02:46:15;17.67;;;5.67;;
64957;SDS011;51486;50.232;19.208;2023-04-29T02:49:01;11.33;;;5.77;;
64957;SDS011;51486;50.232;19.208;2023-04-29T02:51:48;19.30;;;6.20;;
64957;SDS011;51486;50.232;19.208;2023-04-29T02:54:34;10.50;;;5.93;;
64957;SDS011;51486;50.232;19.208;2023-04-29T02:57:20;17.03;;;5.83;;
64957;SDS011;51486;50.232;19.208;2023-04-29T03:00:06;11.50;;;5.90;;
64957;SDS011;51486;50.232;19.208;2023-04-29T03:02:53;11.80;;;5.13;;
64957;SDS011;51486;50.232;19.208;2023-04-29T03:05:38;15.37;;;6.07;;
64957;SDS011;51486;50.232;19.208;2023-04-29T03:08:25;19.77;;;6.97;;
64957;SDS011;51486;50.232;19.208;2023-04-29T03:11:11;17.43;;;7.10;;
64957;SDS011;51486;50.232;19.208;2023-04-29T03:13:57;19.07;;;6.80;;
64957;SDS011;51486;50.232;19.208;2023-04-29T03:16:42;12.40;;;6.53;;
64957;SDS011;51486;50.232;19.208;2023-04-29T03:19:28;17.83;;;6.57;;
64957;SDS011;51486;50.232;19.208;2023-04-29T03:22:15;16.27;;;6.07;;
64957;SDS011;51486;50.232;19.208;2023-04-29T03:25:00;11.63;;;5.70;;
64957;SDS011;51486;50.232;19.208;2023-04-29T03:27:46;10.93;;;5.17;;
64957;SDS011;51486;50.232;19.208;2023-04-29T03:30:32;11.47;;;5.17;;
64957;SDS011;51486;50.232;19.208;2023-04-29T03:33:18;10.43;;;5.70;;
64957;SDS011;51486;50.232;19.208;2023-04-29T03:36:04;29.90;;;9.50;;
64957;SDS011;51486;50.232;19.208;2023-04-29T03:38:50;13.70;;;7.30;;
64957;SDS011;51486;50.232;19.208;2023-04-29T03:41:35;18.77;;;6.90;;
64957;SDS011;51486;50.232;19.208;2023-04-29T03:44:21;19.03;;;6.77;;
64957;SDS011;51486;50.232;19.208;2023-04-29T03:47:07;15.10;;;6.23;;
64957;SDS011;51486;50.232;19.208;2023-04-29T03:49:52;18.47;;;6.27;;
64957;SDS011;51486;50.232;19.208;2023-04-29T03:52:38;16.00;;;6.07;;
64957;SDS011;51486;50.232;19.208;2023-04-29T03:55:24;15.23;;;6.67;;
64957;SDS011;51486;50.232;19.208;2023-04-29T03:58:10;10.87;;;5.93;;
64957;SDS011;51486;50.232;19.208;2023-04-29T04:00:56;11.23;;;5.73;;
64957;SDS011;51486;50.232;19.208;2023-04-29T04:03:41;10.07;;;5.73;;
64957;SDS011;51486;50.232;19.208;2023-04-29T04:06:27;18.37;;;5.47;;
64957;SDS011;51486;50.232;19.208;2023-04-29T04:09:13;12.17;;;5.33;;
64957;SDS011;51486;50.232;19.208;2023-04-29T04:11:59;11.60;;;5.70;;
64957;SDS011;51486;50.232;19.208;2023-04-29T04:14:45;9.53;;;5.57;;
64957;SDS011;51486;50.232;19.208;2023-04-29T04:17:31;12.57;;;5.73;;
64957;SDS011;51486;50.232;19.208;2023-04-29T04:20:16;12.00;;;5.30;;
64957;SDS011;51486;50.232;19.208;2023-04-29T04:23:02;13.67;;;6.10;;
64957;SDS011;51486;50.232;19.208;2023-04-29T04:25:48;19.10;;;5.83;;
64957;SDS011;51486;50.232;19.208;2023-04-29T04:28:34;17.27;;;7.00;;
64957;SDS011;51486;50.232;19.208;2023-04-29T04:31:19;10.90;;;5.93;;
64957;SDS011;51486;50.232;19.208;2023-04-29T04:34:05;16.87;;;6.60;;
64957;SDS011;51486;50.232;19.208;2023-04-29T04:36:51;13.17;;;6.33;;
64957;SDS011;51486;50.232;19.208;2023-04-29T04:39:37;12.10;;;4.53;;
64957;SDS011;51486;50.232;19.208;2023-04-29T04:42:23;16.37;;;6.87;;
64957;SDS011;51486;50.232;19.208;2023-04-29T04:45:09;19.87;;;6.67;;
64957;SDS011;51486;50.232;19.208;2023-04-29T04:47:55;14.83;;;5.10;;
64957;SDS011;51486;50.232;19.208;2023-04-29T04:50:41;11.87;;;5.87;;
64957;SDS011;51486;50.232;19.208;2023-04-29T04:53:27;16.43;;;5.83;;
64957;SDS011;51486;50.232;19.208;2023-04-29T04:56:13;14.17;;;4.80;;
64957;SDS011;51486;50.232;19.208;2023-04-29T04:58:59;12.00;;;4.87;;
64957;SDS011;51486;50.232;19.208;2023-04-29T05:01:44;15.10;;;5.17;;
64957;SDS011;51486;50.232;19.208;2023-04-29T05:04:30;10.97;;;4.87;;
64957;SDS011;51486;50.232;19.208;2023-04-29T05:07:16;12.37;;;4.03;;
64957;SDS011;51486;50.232;19.208;2023-04-29T05:10:02;11.40;;;5.10;;
64957;SDS011;51486;50.232;19.208;2023-04-29T05:12:48;15.90;;;5.13;;
64957;SDS011;51486;50.232;19.208;2023-04-29T05:15:34;12.43;;;5.37;;
64957;SDS011;51486;50.232;19.208;2023-04-29T05:18:19;12.60;;;5.07;;
64957;SDS011;51486;50.232;19.208;2023-04-29T05:21:05;9.87;;;4.80;;
64957;SDS011;51486;50.232;19.208;2023-04-29T05:23:51;12.87;;;4.57;;
64957;SDS011;51486;50.232;19.208;2023-04-29T05:26:37;11.10;;;4.67;;
64957;SDS011;51486;50.232;19.208;2023-04-29T05:29:22;9.63;;;4.17;;
64957;SDS011;51486;50.232;19.208;2023-04-29T05:32:08;10.80;;;4.03;;
64957;SDS011;51486;50.232;19.208;2023-04-29T05:34:54;7.73;;;3.90;;
64957;SDS011;51486;50.232;19.208;2023-04-29T05:37:40;11.57;;;4.57;;
64957;SDS011;51486;50.232;19.208;2023-04-29T05:40:25;8.57;;;5.20;;
64957;SDS011;51486;50.232;19.208;2023-04-29T05:43:11;10.10;;;5.03;;
64957;SDS011;51486;50.232;19.208;2023-04-29T05:45:57;15.03;;;6.17;;
64957;SDS011;51486;50.232;19.208;2023-04-29T05:48:43;7.17;;;3.53;;
64957;SDS011;51486;50.232;19.208;2023-04-29T05:51:28;6.37;;;3.67;;
64957;SDS011;51486;50.232;19.208;2023-04-29T05:54:16;7.00;;;3.43;;
64957;SDS011;51486;50.232;19.208;2023-04-29T05:57:02;6.83;;;3.87;;
64957;SDS011;51486;50.232;19.208;2023-04-29T05:59:48;7.53;;;3.43;;
64957;SDS011;51486;50.232;19.208;2023-04-29T06:02:33;11.30;;;4.40;;
64957;SDS011;51486;50.232;19.208;2023-04-29T06:05:20;9.43;;;3.97;;
64957;SDS011;51486;50.232;19.208;2023-04-29T06:08:05;11.53;;;4.77;;
64957;SDS011;51486;50.232;19.208;2023-04-29T06:10:51;11.67;;;4.47;;
64957;SDS011;51486;50.232;19.208;2023-04-29T06:13:37;13.00;;;4.70;;
64957;SDS011;51486;50.232;19.208;2023-04-29T06:16:23;6.80;;;3.43;;
64957;SDS011;51486;50.232;19.208;2023-04-29T06:19:08;11.73;;;4.33;;
64957;SDS011;51486;50.232;19.208;2023-04-29T06:21:54;7.77;;;3.80;;
64957;SDS011;51486;50.232;19.208;2023-04-29T06:24:40;10.53;;;4.20;;
64957;SDS011;51486;50.232;19.208;2023-04-29T06:27:26;8.17;;;4.90;;
64957;SDS011;51486;50.232;19.208;2023-04-29T06:30:12;11.13;;;4.53;;
64957;SDS011;51486;50.232;19.208;2023-04-29T06:32:58;8.90;;;4.17;;
64957;SDS011;51486;50.232;19.208;2023-04-29T06:35:44;9.93;;;4.67;;
64957;SDS011;51486;50.232;19.208;2023-04-29T06:38:29;9.10;;;4.10;;
64957;SDS011;51486;50.232;19.208;2023-04-29T06:41:15;8.40;;;3.47;;
64957;SDS011;51486;50.232;19.208;2023-04-29T06:44:01;9.87;;;4.57;;
64957;SDS011;51486;50.232;19.208;2023-04-29T06:46:47;9.50;;;3.97;;
64957;SDS011;51486;50.232;19.208;2023-04-29T06:49:32;8.07;;;4.03;;
64957;SDS011;51486;50.232;19.208;2023-04-29T06:52:19;12.47;;;4.87;;
64957;SDS011;51486;50.232;19.208;2023-04-29T06:55:05;8.20;;;4.13;;
64957;SDS011;51486;50.232;19.208;2023-04-29T06:57:51;10.50;;;3.63;;
64957;SDS011;51486;50.232;19.208;2023-04-29T07:00:37;5.80;;;3.33;;
64957;SDS011;51486;50.232;19.208;2023-04-29T07:03:22;6.03;;;3.80;;
64957;SDS011;51486;50.232;19.208;2023-04-29T07:06:08;16.17;;;4.90;;
64957;SDS011;51486;50.232;19.208;2023-04-29T07:08:54;11.93;;;5.40;;
64957;SDS011;51486;50.232;19.208;2023-04-29T07:11:40;8.93;;;4.30;;
64957;SDS011;51486;50.232;19.208;2023-04-29T07:14:26;9.77;;;4.60;;
64957;SDS011;51486;50.232;19.208;2023-04-29T07:17:12;10.80;;;4.60;;
64957;SDS011;51486;50.232;19.208;2023-04-29T07:19:57;17.97;;;6.10;;
64957;SDS011;51486;50.232;19.208;2023-04-29T07:22:44;12.07;;;4.33;;
64957;SDS011;51486;50.232;19.208;2023-04-29T07:25:30;6.63;;;3.17;;
64957;SDS011;51486;50.232;19.208;2023-04-29T07:28:16;5.50;;;3.20;;
64957;SDS011;51486;50.232;19.208;2023-04-29T07:31:02;7.37;;;3.60;;
64957;SDS011;51486;50.232;19.208;2023-04-29T07:33:48;8.60;;;4.03;;
64957;SDS011;51486;50.232;19.208;2023-04-29T07:36:34;6.93;;;3.83;;
64957;SDS011;51486;50.232;19.208;2023-04-29T07:39:20;7.17;;;3.40;;
64957;SDS011;51486;50.232;19.208;2023-04-29T07:42:05;9.47;;;4.73;;
64957;SDS011;51486;50.232;19.208;2023-04-29T07:44:51;10.57;;;4.67;;
64957;SDS011;51486;50.232;19.208;2023-04-29T07:47:37;10.30;;;5.13;;
64957;SDS011;51486;50.232;19.208;2023-04-29T07:50:23;7.77;;;4.00;;
64957;SDS011;51486;50.232;19.208;2023-04-29T07:53:08;7.13;;;4.10;;
64957;SDS011;51486;50.232;19.208;2023-04-29T07:55:54;9.00;;;4.67;;
64957;SDS011;51486;50.232;19.208;2023-04-29T07:58:40;10.53;;;3.97;;
64957;SDS011;51486;50.232;19.208;2023-04-29T08:01:26;7.93;;;4.00;;
64957;SDS011;51486;50.232;19.208;2023-04-29T08:04:12;5.17;;;3.37;;
64957;SDS011;51486;50.232;19.208;2023-04-29T08:06:58;7.17;;;3.90;;
64957;SDS011;51486;50.232;19.208;2023-04-29T08:09:44;10.63;;;4.10;;
64957;SDS011;51486;50.232;19.208;2023-04-29T08:12:29;8.83;;;4.13;;
64957;SDS011;51486;50.232;19.208;2023-04-29T08:15:16;13.70;;;4.50;;
64957;SDS011;51486;50.232;19.208;2023-04-29T08:18:02;12.23;;;4.03;;
64957;SDS011;51486;50.232;19.208;2023-04-29T08:20:48;6.30;;;3.57;;
64957;SDS011;51486;50.232;19.208;2023-04-29T08:23:34;15.03;;;4.87;;
64957;SDS011;51486;50.232;19.208;2023-04-29T08:26:20;11.00;;;4.97;;
64957;SDS011;51486;50.232;19.208;2023-04-29T08:29:06;10.30;;;5.13;;
64957;SDS011;51486;50.232;19.208;2023-04-29T08:31:52;10.93;;;5.37;;
64957;SDS011;51486;50.232;19.208;2023-04-29T08:34:38;8.60;;;5.37;;
64957;SDS011;51486;50.232;19.208;2023-04-29T08:37:27;10.93;;;4.27;;
64957;SDS011;51486;50.232;19.208;2023-04-29T08:40:13;9.00;;;4.50;;
64957;SDS011;51486;50.232;19.208;2023-04-29T08:42:58;11.97;;;5.63;;
64957;SDS011;51486;50.232;19.208;2023-04-29T08:45:45;13.77;;;5.77;;
64957;SDS011;51486;50.232;19.208;2023-04-29T08:48:33;6.27;;;3.30;;
64957;SDS011;51486;50.232;19.208;2023-04-29T08:51:20;10.70;;;4.27;;
64957;SDS011;51486;50.232;19.208;2023-04-29T08:54:06;9.83;;;4.57;;
64957;SDS011;51486;50.232;19.208;2023-04-29T08:56:52;10.13;;;4.13;;
64957;SDS011;51486;50.232;19.208;2023-04-29T08:59:39;5.80;;;3.40;;
64957;SDS011;51486;50.232;19.208;2023-04-29T09:02:25;11.53;;;4.83;;
64957;SDS011;51486;50.232;19.208;2023-04-29T09:05:11;9.83;;;4.30;;
64957;SDS011;51486;50.232;19.208;2023-04-29T09:07:57;11.57;;;5.27;;
64957;SDS011;51486;50.232;19.208;2023-04-29T09:10:47;10.27;;;3.70;;
64957;SDS011;51486;50.232;19.208;2023-04-29T09:13:33;9.53;;;4.37;;
64957;SDS011;51486;50.232;19.208;2023-04-29T09:16:19;6.10;;;3.27;;
64957;SDS011;51486;50.232;19.208;2023-04-29T09:19:04;9.73;;;4.53;;
64957;SDS011;51486;50.232;19.208;2023-04-29T09:21:53;11.00;;;5.40;;
64957;SDS011;51486;50.232;19.208;2023-04-29T09:24:42;8.70;;;4.00;;
64957;SDS011;51486;50.232;19.208;2023-04-29T09:27:29;8.87;;;3.50;;
64957;SDS011;51486;50.232;19.208;2023-04-29T09:30:15;7.13;;;3.80;;
64957;SDS011;51486;50.232;19.208;2023-04-29T09:33:05;22.50;;;3.40;;
64957;SDS011;51486;50.232;19.208;2023-04-29T09:35:52;7.47;;;3.50;;
64957;SDS011;51486;50.232;19.208;2023-04-29T09:38:51;11.50;;;4.63;;
64957;SDS011;51486;50.232;19.208;2023-04-29T09:41:39;8.37;;;3.40;;
64957;SDS011;51486;50.232;19.208;2023-04-29T09:44:40;6.13;;;2.93;;
64957;SDS011;51486;50.232;19.208;2023-04-29T09:47:29;5.83;;;2.87;;
64957;SDS011;51486;50.232;19.208;2023-04-29T09:50:18;6.13;;;2.90;;
64957;SDS011;51486;50.232;19.208;2023-04-29T09:53:04;6.17;;;3.47;;
64957;SDS011;51486;50.232;19.208;2023-04-29T09:55:58;7.23;;;2.53;;
64957;SDS011;51486;50.232;19.208;2023-04-29T09:58:45;6.13;;;2.90;;
64957;SDS011;51486;50.232;19.208;2023-04-29T10:01:31;10.80;;;3.23;;
64957;SDS011;51486;50.232;19.208;2023-04-29T10:04:19;8.30;;;3.33;;
64957;SDS011;51486;50.232;19.208;2023-04-29T10:07:05;6.33;;;2.97;;
64957;SDS011;51486;50.232;19.208;2023-04-29T10:09:52;7.43;;;3.20;;
64957;SDS011;51486;50.232;19.208;2023-04-29T10:12:39;6.83;;;3.00;;
64957;SDS011;51486;50.232;19.208;2023-04-29T10:15:32;12.50;;;3.90;;
64957;SDS011;51486;50.232;19.208;2023-04-29T10:18:25;6.27;;;3.20;;
64957;SDS011;51486;50.232;19.208;2023-04-29T10:21:28;4.23;;;3.17;;
64957;SDS011;51486;50.232;19.208;2023-04-29T10:24:18;5.73;;;3.00;;
64957;SDS011;51486;50.232;19.208;2023-04-29T10:27:07;12.50;;;4.57;;
64957;SDS011;51486;50.232;19.208;2023-04-29T10:29:56;10.53;;;3.40;;
64957;SDS011;51486;50.232;19.208;2023-04-29T10:32:44;5.80;;;3.67;;
64957;SDS011;51486;50.232;19.208;2023-04-29T10:35:31;11.17;;;3.70;;
64957;SDS011;51486;50.232;19.208;2023-04-29T10:38:22;6.93;;;3.87;;
64957;SDS011;51486;50.232;19.208;2023-04-29T10:41:22;10.90;;;4.20;;
64957;SDS011;51486;50.232;19.208;2023-04-29T10:44:11;7.00;;;3.83;;
64957;SDS011;51486;50.232;19.208;2023-04-29T10:47:18;8.80;;;4.27;;
64957;SDS011;51486;50.232;19.208;2023-04-29T10:50:04;6.37;;;3.23;;
64957;SDS011;51486;50.232;19.208;2023-04-29T10:52:51;10.10;;;3.63;;
64957;SDS011;51486;50.232;19.208;2023-04-29T10:55:37;9.80;;;4.20;;
64957;SDS011;51486;50.232;19.208;2023-04-29T11:01:26;6.50;;;3.23;;
64957;SDS011;51486;50.232;19.208;2023-04-29T11:04:25;10.73;;;3.83;;
64957;SDS011;51486;50.232;19.208;2023-04-29T11:07:11;8.10;;;3.50;;
64957;SDS011;51486;50.232;19.208;2023-04-29T11:10:12;7.07;;;3.17;;
64957;SDS011;51486;50.232;19.208;2023-04-29T11:16:09;6.60;;;3.33;;
64957;SDS011;51486;50.232;19.208;2023-04-29T11:19:02;13.00;;;3.10;;
64957;SDS011;51486;50.232;19.208;2023-04-29T11:22:08;5.47;;;3.23;;
64957;SDS011;51486;50.232;19.208;2023-04-29T11:24:57;7.30;;;3.10;;
64957;SDS011;51486;50.232;19.208;2023-04-29T11:27:44;13.60;;;4.30;;
64957;SDS011;51486;50.232;19.208;2023-04-29T11:30:33;7.07;;;3.40;;
64957;SDS011;51486;50.232;19.208;2023-04-29T11:33:20;15.33;;;3.73;;
64957;SDS011;51486;50.232;19.208;2023-04-29T11:36:06;5.70;;;3.00;;
64957;SDS011;51486;50.232;19.208;2023-04-29T11:38:52;5.37;;;3.13;;
64957;SDS011;51486;50.232;19.208;2023-04-29T11:41:38;3.93;;;2.63;;
64957;SDS011;51486;50.232;19.208;2023-04-29T11:44:23;6.00;;;3.13;;
64957;SDS011;51486;50.232;19.208;2023-04-29T11:47:09;3.90;;;2.97;;
64957;SDS011;51486;50.232;19.208;2023-04-29T11:50:02;4.57;;;2.70;;
64957;SDS011;51486;50.232;19.208;2023-04-29T11:52:49;7.27;;;3.37;;
64957;SDS011;51486;50.232;19.208;2023-04-29T11:55:34;15.03;;;3.17;;
64957;SDS011;51486;50.232;19.208;2023-04-29T11:58:21;6.87;;;3.13;;
64957;SDS011;51486;50.232;19.208;2023-04-29T12:01:07;13.70;;;3.33;;
64957;SDS011;51486;50.232;19.208;2023-04-29T12:03:56;6.20;;;3.17;;
64957;SDS011;51486;50.232;19.208;2023-04-29T12:06:50;13.43;;;4.43;;
64957;SDS011;51486;50.232;19.208;2023-04-29T12:09:42;12.13;;;4.03;;
64957;SDS011;51486;50.232;19.208;2023-04-29T12:12:29;7.43;;;3.10;;
64957;SDS011;51486;50.232;19.208;2023-04-29T12:15:19;5.43;;;3.13;;
64957;SDS011;51486;50.232;19.208;2023-04-29T12:18:05;5.27;;;2.83;;
64957;SDS011;51486;50.232;19.208;2023-04-29T12:20:51;7.83;;;3.87;;
64957;SDS011;51486;50.232;19.208;2023-04-29T12:23:36;4.67;;;2.57;;
64957;SDS011;51486;50.232;19.208;2023-04-29T12:26:23;10.43;;;3.20;;
64957;SDS011;51486;50.232;19.208;2023-04-29T12:29:12;4.20;;;2.90;;
64957;SDS011;51486;50.232;19.208;2023-04-29T12:31:58;7.33;;;3.83;;
64957;SDS011;51486;50.232;19.208;2023-04-29T12:34:44;9.63;;;3.20;;
64957;SDS011;51486;50.232;19.208;2023-04-29T12:37:32;4.60;;;2.73;;
64957;SDS011;51486;50.232;19.208;2023-04-29T12:40:17;9.00;;;3.93;;
64957;SDS011;51486;50.232;19.208;2023-04-29T12:43:07;5.33;;;3.07;;
64957;SDS011;51486;50.232;19.208;2023-04-29T12:45:54;8.30;;;3.10;;
64957;SDS011;51486;50.232;19.208;2023-04-29T12:48:45;2.53;;;1.87;;
64957;SDS011;51486;50.232;19.208;2023-04-29T12:51:32;3.60;;;1.73;;
64957;SDS011;51486;50.232;19.208;2023-04-29T12:54:18;4.20;;;1.63;;
64957;SDS011;51486;50.232;19.208;2023-04-29T12:57:04;3.90;;;2.27;;
64957;SDS011;51486;50.232;19.208;2023-04-29T12:59:50;9.27;;;2.33;;
64957;SDS011;51486;50.232;19.208;2023-04-29T13:02:36;4.53;;;2.23;;
64957;SDS011;51486;50.232;19.208;2023-04-29T13:05:21;4.57;;;1.77;;
64957;SDS011;51486;50.232;19.208;2023-04-29T13:08:07;3.03;;;1.83;;
64957;SDS011;51486;50.232;19.208;2023-04-29T13:10:53;2.47;;;1.90;;
64957;SDS011;51486;50.232;19.208;2023-04-29T13:13:39;3.40;;;1.97;;
64957;SDS011;51486;50.232;19.208;2023-04-29T13:16:25;2.27;;;1.67;;
64957;SDS011;51486;50.232;19.208;2023-04-29T13:19:11;14.93;;;2.07;;
64957;SDS011;51486;50.232;19.208;2023-04-29T13:21:57;3.23;;;1.87;;
64957;SDS011;51486;50.232;19.208;2023-04-29T13:24:43;3.77;;;2.20;;
64957;SDS011;51486;50.232;19.208;2023-04-29T13:27:28;2.77;;;1.67;;
64957;SDS011;51486;50.232;19.208;2023-04-29T13:30:14;1.93;;;1.30;;
64957;SDS011;51486;50.232;19.208;2023-04-29T13:33:00;4.53;;;2.27;;
64957;SDS011;51486;50.232;19.208;2023-04-29T13:35:46;4.20;;;2.20;;
64957;SDS011;51486;50.232;19.208;2023-04-29T13:38:32;3.67;;;2.37;;
64957;SDS011;51486;50.232;19.208;2023-04-29T13:41:18;3.90;;;2.27;;
64957;SDS011;51486;50.232;19.208;2023-04-29T13:44:04;4.03;;;1.80;;
64957;SDS011;51486;50.232;19.208;2023-04-29T13:46:49;6.37;;;1.60;;
64957;SDS011;51486;50.232;19.208;2023-04-29T13:49:36;4.67;;;2.00;;
64957;SDS011;51486;50.232;19.208;2023-04-29T13:52:23;6.30;;;2.33;;
64957;SDS011;51486;50.232;19.208;2023-04-29T13:55:09;5.80;;;1.90;;
64957;SDS011;51486;50.232;19.208;2023-04-29T13:57:55;2.47;;;1.83;;
64957;SDS011;51486;50.232;19.208;2023-04-29T14:00:41;4.23;;;2.00;;
64957;SDS011;51486;50.232;19.208;2023-04-29T14:03:26;7.77;;;2.60;;
64957;SDS011;51486;50.232;19.208;2023-04-29T14:06:12;9.53;;;2.90;;
64957;SDS011;51486;50.232;19.208;2023-04-29T14:08:58;12.40;;;2.27;;
64957;SDS011;51486;50.232;19.208;2023-04-29T14:11:44;4.23;;;2.43;;
64957;SDS011;51486;50.232;19.208;2023-04-29T14:14:30;4.03;;;2.07;;
64957;SDS011;51486;50.232;19.208;2023-04-29T14:17:16;2.50;;;1.90;;
64957;SDS011;51486;50.232;19.208;2023-04-29T14:20:02;3.07;;;2.03;;
64957;SDS011;51486;50.232;19.208;2023-04-29T14:22:48;3.97;;;2.20;;
64957;SDS011;51486;50.232;19.208;2023-04-29T14:25:34;2.47;;;1.70;;
64957;SDS011;51486;50.232;19.208;2023-04-29T14:28:19;5.97;;;2.30;;
64957;SDS011;51486;50.232;19.208;2023-04-29T14:31:05;2.80;;;1.87;;
64957;SDS011;51486;50.232;19.208;2023-04-29T14:33:51;2.93;;;2.00;;
64957;SDS011;51486;50.232;19.208;2023-04-29T14:36:36;3.23;;;2.33;;
64957;SDS011;51486;50.232;19.208;2023-04-29T14:39:22;4.27;;;2.33;;
64957;SDS011;51486;50.232;19.208;2023-04-29T14:42:08;4.90;;;2.90;;
64957;SDS011;51486;50.232;19.208;2023-04-29T14:44:54;3.93;;;2.67;;
64957;SDS011;51486;50.232;19.208;2023-04-29T14:47:39;3.87;;;2.40;;
64957;SDS011;51486;50.232;19.208;2023-04-29T14:50:25;3.73;;;2.40;;
64957;SDS011;51486;50.232;19.208;2023-04-29T14:53:11;4.50;;;2.37;;
64957;SDS011;51486;50.232;19.208;2023-04-29T14:55:57;4.97;;;2.83;;
64957;SDS011;51486;50.232;19.208;2023-04-29T14:58:42;6.87;;;3.07;;
64957;SDS011;51486;50.232;19.208;2023-04-29T15:01:28;6.53;;;2.40;;
64957;SDS011;51486;50.232;19.208;2023-04-29T15:04:14;5.10;;;2.93;;
64957;SDS011;51486;50.232;19.208;2023-04-29T15:07:00;3.47;;;2.53;;
64957;SDS011;51486;50.232;19.208;2023-04-29T15:09:46;5.30;;;2.17;;
64957;SDS011;51486;50.232;19.208;2023-04-29T15:12:32;5.07;;;2.13;;
64957;SDS011;51486;50.232;19.208;2023-04-29T15:15:17;2.70;;;1.70;;
64957;SDS011;51486;50.232;19.208;2023-04-29T15:18:03;8.60;;;2.13;;
64957;SDS011;51486;50.232;19.208;2023-04-29T15:20:50;3.30;;;2.20;;
64957;SDS011;51486;50.232;19.208;2023-04-29T15:23:36;3.67;;;1.73;;
64957;SDS011;51486;50.232;19.208;2023-04-29T15:26:22;3.83;;;2.10;;
64957;SDS011;51486;50.232;19.208;2023-04-29T15:29:07;2.97;;;2.07;;
64957;SDS011;51486;50.232;19.208;2023-04-29T15:31:53;3.33;;;2.30;;
64957;SDS011;51486;50.232;19.208;2023-04-29T15:34:39;3.17;;;1.93;;
64957;SDS011;51486;50.232;19.208;2023-04-29T15:37:25;4.27;;;2.20;;
64957;SDS011;51486;50.232;19.208;2023-04-29T15:40:12;5.17;;;2.80;;
64957;SDS011;51486;50.232;19.208;2023-04-29T15:43:06;5.83;;;2.63;;
64957;SDS011;51486;50.232;19.208;2023-04-29T15:45:52;8.73;;;3.13;;
64957;SDS011;51486;50.232;19.208;2023-04-29T15:48:38;10.27;;;3.57;;
64957;SDS011;51486;50.232;19.208;2023-04-29T15:51:24;12.37;;;5.33;;
64957;SDS011;51486;50.232;19.208;2023-04-29T15:54:09;8.47;;;4.63;;
64957;SDS011;51486;50.232;19.208;2023-04-29T15:56:55;9.00;;;5.23;;
64957;SDS011;51486;50.232;19.208;2023-04-29T15:59:41;10.47;;;5.03;;
64957;SDS011;51486;50.232;19.208;2023-04-29T16:02:27;7.70;;;4.83;;
64957;SDS011;51486;50.232;19.208;2023-04-29T16:05:13;8.93;;;5.13;;
64957;SDS011;51486;50.232;19.208;2023-04-29T16:07:59;9.57;;;5.10;;
64957;SDS011;51486;50.232;19.208;2023-04-29T16:10:44;12.33;;;5.30;;
64957;SDS011;51486;50.232;19.208;2023-04-29T16:13:30;6.23;;;3.40;;
64957;SDS011;51486;50.232;19.208;2023-04-29T16:16:16;7.53;;;4.17;;
64957;SDS011;51486;50.232;19.208;2023-04-29T16:19:02;8.33;;;3.90;;
64957;SDS011;51486;50.232;19.208;2023-04-29T16:21:48;6.67;;;4.73;;
64957;SDS011;51486;50.232;19.208;2023-04-29T16:24:34;8.47;;;3.87;;
64957;SDS011;51486;50.232;19.208;2023-04-29T16:27:20;16.43;;;6.83;;
64957;SDS011;51486;50.232;19.208;2023-04-29T16:30:06;18.30;;;6.37;;
64957;SDS011;51486;50.232;19.208;2023-04-29T16:32:53;28.53;;;10.87;;
64957;SDS011;51486;50.232;19.208;2023-04-29T16:35:39;23.57;;;9.83;;
64957;SDS011;51486;50.232;19.208;2023-04-29T16:38:24;45.10;;;17.67;;
64957;SDS011;51486;50.232;19.208;2023-04-29T16:41:10;50.70;;;19.63;;
64957;SDS011;51486;50.232;19.208;2023-04-29T16:43:56;34.10;;;16.30;;
64957;SDS011;51486;50.232;19.208;2023-04-29T16:46:43;44.90;;;16.70;;